Time;durP1;ratioP1;P1;durP2;ratioP2;P2;SDS_P1;SDS_P2;PMS_P1;PMS_P2;Temp;Humidity;BMP_temperature;BMP_pressure;BME280_temperature;BME280_humidity;BME280_pressure;Samples;Min_cycle;Max_cycle;Signal;HPM_P1;HPM_P2
2021/10/05 00:03:16;;;;;;;;;;;11.60;99.90;;;;;;8391038;28;19951;-64
2021/10/05 00:07:17;;;;;;;;;;;11.50;99.90;;;;;;8391979;28;19909;-63
2021/10/05 00:11:18;;;;;;;;;;;11.50;99.90;;;;;;8392278;28;20298;-64
2021/10/05 00:15:19;;;;;;;;;;;11.50;99.90;;;;;;8391891;28;19970;-63
2021/10/05 00:19:19;;;;;;;;;;;11.40;99.90;;;;;;8391976;28;19913;-64
2021/10/05 00:23:20;;;;;;;;;;;11.40;99.90;;;;;;8391868;28;19916;-63
2021/10/05 00:27:20;;;;;;;;;;;11.50;99.90;;;;;;8391683;28;19992;-64
2021/10/05 00:31:20;;;;;;;;;;;11.50;99.90;;;;;;8391652;28;19912;-63
2021/10/05 00:35:21;;;;;;;;;;;11.50;99.90;;;;;;8391470;28;19909;-64
2021/10/05 00:39:21;;;;;;;;;;;11.50;99.90;;;;;;8391845;28;20004;-64
2021/10/05 00:43:23;;;;;;;;;;;11.60;99.90;;;;;;8391706;28;19913;-64
2021/10/05 00:47:24;;;;;;;;;;;11.40;99.90;;;;;;8389908;28;19915;-64
2021/10/05 00:51:24;;;;;;;;;;;11.30;99.90;;;;;;8391475;28;19927;-64
2021/10/05 00:55:25;;;;;;;;;;;11.50;99.90;;;;;;8393842;28;19967;-63
2021/10/05 00:59:25;;;;;;;;;;;11.50;99.90;;;;;;8398035;28;19962;-64
2021/10/05 01:03:26;;;;;;;;;;;11.50;99.90;;;;;;8397769;28;20424;-63
2021/10/05 01:07:26;;;;;;;;;;;11.50;99.90;;;;;;8397506;28;20552;-64
2021/10/05 01:11:27;;;;;;;;;;;11.40;99.90;;;;;;8397799;28;20454;-64
2021/10/05 01:15:29;;;;;;;;;;;11.50;99.90;;;;;;8397376;28;19944;-64
2021/10/05 01:19:29;;;;;;;;;;;11.50;99.90;;;;;;8397644;28;19950;-64
2021/10/05 01:23:33;;;;;;;;;;;11.50;99.90;;;;;;8397475;28;19916;-63
2021/10/05 01:27:52;;;;;;;;;;;11.50;99.90;;;;;;8396981;28;20282;-64
2021/10/05 01:31:55;;;;;;;;;;;11.40;99.90;;;;;;8396942;28;19912;-64
2021/10/05 01:35:55;;;;;;;;;;;11.30;99.90;;;;;;8395567;28;19913;-64
2021/10/05 01:39:56;;;;;;;;;;;11.40;99.90;;;;;;8397404;28;19919;-64
2021/10/05 01:43:56;;;;;;;;;;;11.30;99.90;;;;;;8395721;28;20480;-64
2021/10/05 01:47:57;;;;;;;;;;;11.30;99.90;;;;;;8396673;28;19909;-64
2021/10/05 01:51:57;;;;;;;;;;;11.40;99.90;;;;;;8396983;28;20018;-64
2021/10/05 01:55:58;;;;;;;;;;;11.40;99.90;;;;;;8394903;28;19915;-64
2021/10/05 01:59:58;;;;;;;;;;;11.30;99.90;;;;;;8396669;28;19913;-63
2021/10/05 02:03:58;;;;;;;;;;;11.20;99.90;;;;;;8395903;28;20374;-63
2021/10/05 02:07:59;;;;;;;;;;;11.10;99.90;;;;;;8394543;28;20371;-64
2021/10/05 02:11:59;;;;;;;;;;;11.20;99.90;;;;;;8395696;28;19927;-64
2021/10/05 02:16:00;;;;;;;;;;;11.10;99.90;;;;;;8394193;28;20282;-64
2021/10/05 02:20:01;;;;;;;;;;;11.10;99.90;;;;;;8395836;28;19909;-64
2021/10/05 02:28:20;;;;;;;;;;;11.10;99.90;;;;;;8395816;28;20442;-64
2021/10/05 02:32:20;;;;;;;;;;;11.20;99.90;;;;;;8395309;28;19916;-63
2021/10/05 02:36:21;;;;;;;;;;;11.20;99.90;;;;;;8386326;28;19913;-64
2021/10/05 02:40:21;;;;;;;;;;;11.10;99.90;;;;;;8362228;28;19915;-63
2021/10/05 02:44:22;;;;;;;;;;;11.10;99.90;;;;;;8362498;28;19966;-63
2021/10/05 02:48:22;;;;;;;;;;;11.20;99.90;;;;;;8361433;28;20334;-64
2021/10/05 02:52:23;;;;;;;;;;;11.10;99.90;;;;;;8361460;28;19966;-64
2021/10/05 02:56:23;;;;;;;;;;;11.20;99.90;;;;;;8359536;28;19915;-63
2021/10/05 03:00:24;;;;;;;;;;;11.30;99.90;;;;;;8361401;28;19909;-64
2021/10/05 03:04:25;;;;;;;;;;;11.10;99.90;;;;;;8361091;28;20302;-64
2021/10/05 03:08:29;;;;;;;;;;;11.20;99.90;;;;;;8369818;28;19913;-63
2021/10/05 03:12:29;;;;;;;;;;;11.20;99.90;;;;;;8360934;28;19916;-63
2021/10/05 03:16:30;;;;;;;;;;;11.20;99.90;;;;;;8359656;28;20287;-64
2021/10/05 03:20:30;;;;;;;;;;;11.10;99.90;;;;;;8384735;28;19913;-63
2021/10/05 03:24:31;;;;;;;;;;;10.90;99.90;;;;;;8393518;28;19954;-63
2021/10/05 03:28:32;;;;;;;;;;;11.10;99.90;;;;;;8364434;28;20383;-63
2021/10/05 03:32:33;;;;;;;;;;;11.10;99.90;;;;;;8365914;28;20560;-63
2021/10/05 03:36:33;;;;;;;;;;;11.00;99.90;;;;;;8375776;28;20007;-63
2021/10/05 03:40:34;;;;;;;;;;;11.00;99.90;;;;;;8378671;28;19913;-64
2021/10/05 03:44:34;;;;;;;;;;;11.10;99.90;;;;;;8374625;28;20278;-64
2021/10/05 03:48:35;;;;;;;;;;;10.90;99.90;;;;;;8391440;28;19920;-63
2021/10/05 03:52:37;;;;;;;;;;;10.90;99.90;;;;;;8388069;28;19923;-63
2021/10/05 03:56:38;;;;;;;;;;;11.00;99.90;;;;;;8424805;28;19908;-63
2021/10/05 04:00:38;;;;;;;;;;;11.10;99.90;;;;;;8426171;28;19916;-63
2021/10/05 04:04:39;;;;;;;;;;;11.00;99.90;;;;;;8424080;28;19912;-64
2021/10/05 04:08:40;;;;;;;;;;;11.10;99.90;;;;;;8425967;28;19912;-63
2021/10/05 04:12:40;;;;;;;;;;;11.00;99.90;;;;;;8403786;28;20371;-63
2021/10/05 04:16:41;;;;;;;;;;;11.00;99.90;;;;;;8374641;28;19919;-63
2021/10/05 04:20:41;;;;;;;;;;;11.00;99.90;;;;;;8368258;28;19943;-64
2021/10/05 04:24:42;;;;;;;;;;;10.90;99.90;;;;;;8374005;28;19913;-63
2021/10/05 04:28:42;;;;;;;;;;;10.90;99.90;;;;;;8374346;28;19909;-63
2021/10/05 04:32:43;;;;;;;;;;;10.80;99.90;;;;;;8375885;28;20025;-63
2021/10/05 04:36:43;;;;;;;;;;;11.00;99.90;;;;;;8379414;28;20432;-63
2021/10/05 04:40:44;;;;;;;;;;;11.00;99.90;;;;;;8364351;28;19952;-63
2021/10/05 04:44:44;;;;;;;;;;;11.10;99.90;;;;;;8368642;28;19952;-63
2021/10/05 04:48:45;;;;;;;;;;;11.00;99.90;;;;;;8380366;28;19913;-63
2021/10/05 04:52:45;;;;;;;;;;;11.10;99.90;;;;;;8389669;28;19938;-63
2021/10/05 04:56:46;;;;;;;;;;;11.20;99.90;;;;;;8373720;28;20349;-63
2021/10/05 05:00:46;;;;;;;;;;;11.20;99.90;;;;;;8364926;28;19908;-64
2021/10/05 05:04:47;;;;;;;;;;;11.10;99.90;;;;;;8356911;28;19970;-64
2021/10/05 05:08:47;;;;;;;;;;;11.30;99.90;;;;;;8354570;28;19909;-64
2021/10/05 05:12:47;;;;;;;;;;;11.20;99.90;;;;;;8358049;28;20290;-64
2021/10/05 05:16:48;;;;;;;;;;;10.90;99.90;;;;;;8357848;28;20292;-63
2021/10/05 05:20:49;;;;;;;;;;;10.80;99.90;;;;;;8358060;28;19916;-63
2021/10/05 05:24:51;;;;;;;;;;;11.00;99.90;;;;;;8357433;28;21219;-63
2021/10/05 05:28:52;;;;;;;;;;;11.10;99.90;;;;;;8356818;28;19931;-63
2021/10/05 05:32:53;;;;;;;;;;;11.20;99.90;;;;;;8357971;28;19913;-63
2021/10/05 05:36:54;;;;;;;;;;;11.30;99.90;;;;;;8356500;28;19909;-63
2021/10/05 05:40:55;;;;;;;;;;;11.10;99.90;;;;;;8360639;28;19913;-63
2021/10/05 05:44:55;;;;;;;;;;;11.20;99.90;;;;;;8363918;28;19919;-63
2021/10/05 05:48:56;;;;;;;;;;;11.10;99.90;;;;;;8378684;28;19919;-64
2021/10/05 05:52:56;;;;;;;;;;;11.10;99.90;;;;;;8396367;28;19994;-63
2021/10/05 05:56:57;;;;;;;;;;;11.30;99.90;;;;;;8396212;28;19935;-63
2021/10/05 06:00:57;;;;;;;;;;;11.30;99.90;;;;;;8396073;28;20011;-63
2021/10/05 06:04:58;;;;;;;;;;;11.30;99.90;;;;;;8395845;28;19909;-64
2021/10/05 06:08:59;;;;;;;;;;;11.20;99.90;;;;;;8395199;28;19912;-64
2021/10/05 06:13:00;;;;;;;;;;;11.30;99.90;;;;;;8394308;28;19923;-63
2021/10/05 06:17:01;;;;;;;;;;;11.20;99.90;;;;;;8395382;28;19908;-63
2021/10/05 06:21:02;;;;;;;;;;;11.30;99.90;;;;;;8395537;28;19927;-63
2021/10/05 06:25:07;;;;;;;;;;;11.50;99.90;;;;;;8395053;28;19909;-63
2021/10/05 06:29:07;;;;;;;;;;;11.20;99.90;;;;;;8395441;28;20001;-63
2021/10/05 06:33:07;;;;;;;;;;;11.30;99.90;;;;;;8393817;28;20517;-63
2021/10/05 06:37:08;;;;;;;;;;;11.20;99.90;;;;;;8394838;28;19915;-63
2021/10/05 06:41:08;;;;;;;;;;;11.30;99.90;;;;;;8394955;28;19962;-63
2021/10/05 06:45:09;;;;;;;;;;;11.20;99.90;;;;;;8394522;28;19919;-63
2021/10/05 06:49:10;;;;;;;;;;;11.40;99.90;;;;;;8394696;28;19955;-64
2021/10/05 06:53:15;;;;;;;;;;;11.30;99.90;;;;;;8394389;28;21633;-63
2021/10/05 06:57:16;;;;;;;;;;;11.30;99.90;;;;;;8392898;28;19909;-63
2021/10/05 07:01:16;;;;;;;;;;;11.40;99.90;;;;;;8394330;28;19916;-63
2021/10/05 07:05:18;;;;;;;;;;;11.50;99.90;;;;;;8393961;28;19912;-63
2021/10/05 07:09:19;;;;;;;;;;;11.60;99.90;;;;;;8393902;28;19912;-64
2021/10/05 07:13:19;;;;;;;;;;;11.60;99.90;;;;;;8392330;28;19939;-63
2021/10/05 07:17:20;;;;;;;;;;;11.70;99.90;;;;;;8393187;28;19908;-64
2021/10/05 07:21:23;;;;;;;;;;;11.80;99.90;;;;;;8393434;28;20046;-64
2021/10/05 07:25:24;;;;;;;;;;;12.10;99.90;;;;;;8393357;28;19908;-63
2021/10/05 07:29:24;;;;;;;;;;;12.30;99.90;;;;;;8393222;28;19908;-63
2021/10/05 07:33:26;;;;;;;;;;;12.50;99.90;;;;;;8393059;28;19915;-64
2021/10/05 07:37:26;;;;;;;;;;;12.70;99.90;;;;;;8392699;28;20294;-64
2021/10/05 07:41:27;;;;;;;;;;;13.00;99.90;;;;;;8393294;28;19916;-64
2021/10/05 07:45:28;;;;;;;;;;;13.40;99.90;;;;;;8391634;28;19909;-64
2021/10/05 07:49:29;;;;;;;;;;;13.50;99.90;;;;;;8392850;28;19913;-63
2021/10/05 07:53:29;;;;;;;;;;;13.40;99.90;;;;;;8392680;28;19916;-63
2021/10/05 07:57:30;;;;;;;;;;;13.20;99.90;;;;;;8392403;28;20329;-63
2021/10/05 08:01:30;;;;;;;;;;;13.30;99.90;;;;;;8392887;28;19908;-63
2021/10/05 08:05:31;;;;;;;;;;;13.20;99.90;;;;;;8392266;28;19997;-63
2021/10/05 08:09:32;;;;;;;;;;;13.40;99.90;;;;;;8391729;28;19909;-62
2021/10/05 08:13:32;;;;;;;;;;;13.40;99.90;;;;;;8391214;28;20286;-62
2021/10/05 08:17:33;;;;;;;;;;;13.30;99.90;;;;;;8391721;28;19912;-63
2021/10/05 08:21:34;;;;;;;;;;;13.70;99.90;;;;;;8392079;28;19917;-62
2021/10/05 08:25:34;;;;;;;;;;;13.90;99.90;;;;;;8392691;28;19920;-62
2021/10/05 08:29:37;;;;;;;;;;;14.00;99.90;;;;;;8392082;28;20030;-62
2021/10/05 08:33:38;;;;;;;;;;;14.00;99.90;;;;;;8390726;28;19969;-63
2021/10/05 08:37:39;;;;;;;;;;;13.90;99.90;;;;;;8391283;28;19908;-63
2021/10/05 08:41:43;;;;;;;;;;;14.30;99.90;;;;;;8391950;28;19916;-62
2021/10/05 08:45:44;;;;;;;;;;;14.40;99.90;;;;;;8391808;28;20344;-63
2021/10/05 08:49:45;;;;;;;;;;;14.40;99.90;;;;;;8391811;28;19908;-63
2021/10/05 08:53:45;;;;;;;;;;;14.40;99.90;;;;;;8390474;28;19966;-62
2021/10/05 08:57:47;;;;;;;;;;;14.30;99.90;;;;;;8391580;28;20465;-63
2021/10/05 09:01:49;;;;;;;;;;;14.30;99.90;;;;;;8391991;28;19955;-62
2021/10/05 09:05:49;;;;;;;;;;;14.10;99.90;;;;;;8391806;28;20019;-62
2021/10/05 09:09:51;;;;;;;;;;;14.30;99.90;;;;;;8392073;28;20378;-62
2021/10/05 09:13:53;;;;;;;;;;;14.70;99.90;;;;;;8390227;28;19908;-63
2021/10/05 09:17:55;;;;;;;;;;;14.80;99.90;;;;;;8396763;28;19909;-63
2021/10/05 09:21:56;;;;;;;;;;;14.60;99.90;;;;;;8397659;28;19917;-62
2021/10/05 09:25:56;;;;;;;;;;;14.70;99.90;;;;;;8397491;28;20346;-63
2021/10/05 09:29:57;;;;;;;;;;;14.80;99.90;;;;;;8396104;28;20011;-63
2021/10/05 09:33:57;;;;;;;;;;;15.00;99.90;;;;;;8397219;28;19909;-63
2021/10/05 09:38:08;;;;;;;;;;;14.90;99.90;;;;;;8396633;28;19924;-63
2021/10/05 09:42:09;;;;;;;;;;;14.60;99.90;;;;;;8397120;28;20283;-63
2021/10/05 09:46:13;;;;;;;;;;;14.60;99.90;;;;;;8396829;28;19991;-63
2021/10/05 09:50:14;;;;;;;;;;;14.60;99.90;;;;;;8396695;28;19919;-62
2021/10/05 09:54:14;;;;;;;;;;;14.70;99.90;;;;;;8396591;28;20382;-63
2021/10/05 09:58:18;;;;;;;;;;;15.00;99.90;;;;;;8394904;28;19930;-63
2021/10/05 10:02:19;;;;;;;;;;;15.40;99.90;;;;;;8396220;28;19934;-63
2021/10/05 10:06:19;;;;;;;;;;;14.90;99.90;;;;;;8396194;28;20117;-63
2021/10/05 10:10:21;;;;;;;;;;;14.10;99.90;;;;;;8395778;28;19917;-63
2021/10/05 10:14:22;;;;;;;;;;;14.20;99.90;;;;;;8387928;28;19991;-63
2021/10/05 10:18:23;;;;;;;;;;;14.60;99.90;;;;;;8373564;28;19912;-63
2021/10/05 10:22:23;;;;;;;;;;;15.10;99.90;;;;;;8395806;28;19924;-63
2021/10/05 10:26:24;;;;;;;;;;;15.40;99.90;;;;;;8394679;28;19920;-62
2021/10/05 10:30:25;;;;;;;;;;;15.30;99.90;;;;;;8395126;28;19920;-63
2021/10/05 10:34:27;;;;;;;;;;;15.20;99.90;;;;;;8395232;28;19908;-62
2021/10/05 10:38:28;;;;;;;;;;;15.60;99.90;;;;;;8394780;28;19944;-63
2021/10/05 10:42:29;;;;;;;;;;;15.50;99.90;;;;;;8395083;28;19909;-62
2021/10/05 10:46:33;;;;;;;;;;;15.40;99.90;;;;;;8393429;28;20007;-62
2021/10/05 10:50:35;;;;;;;;;;;15.40;99.90;;;;;;8393542;28;19959;-62
2021/10/05 10:54:35;;;;;;;;;;;15.90;99.90;;;;;;8394718;28;19917;-63
2021/10/05 10:58:40;;;;;;;;;;;15.70;99.90;;;;;;8394942;28;20014;-63
2021/10/05 11:02:42;;;;;;;;;;;15.50;99.90;;;;;;8394557;28;20023;-63
2021/10/05 11:06:45;;;;;;;;;;;15.30;99.90;;;;;;8394389;28;19908;-63
2021/10/05 11:10:46;;;;;;;;;;;15.70;99.90;;;;;;8394681;28;19917;-62
2021/10/05 11:14:47;;;;;;;;;;;16.30;99.90;;;;;;8394064;28;20303;-63
2021/10/05 11:18:49;;;;;;;;;;;16.90;99.90;;;;;;8392857;28;19908;-63
2021/10/05 11:22:49;;;;;;;;;;;16.30;99.90;;;;;;8392660;28;19916;-63
2021/10/05 11:26:51;;;;;;;;;;;15.50;99.90;;;;;;8393395;28;19974;-62
2021/10/05 11:30:56;;;;;;;;;;;15.10;99.90;;;;;;8393558;28;19974;-63
2021/10/05 11:34:56;;;;;;;;;;;15.10;99.90;;;;;;8392149;28;19915;-62
2021/10/05 11:38:57;;;;;;;;;;;15.20;99.90;;;;;;8392263;28;19959;-63
2021/10/05 11:42:57;;;;;;;;;;;15.40;99.90;;;;;;8393193;28;19915;-63
2021/10/05 11:47:00;;;;;;;;;;;15.60;99.90;;;;;;8392789;28;20371;-63
2021/10/05 11:51:01;;;;;;;;;;;15.60;99.90;;;;;;8388516;28;19923;-63
2021/10/05 11:55:03;;;;;;;;;;;15.70;99.90;;;;;;8390692;28;19910;-63
2021/10/05 11:59:03;;;;;;;;;;;15.50;99.90;;;;;;8390870;28;19916;-63
2021/10/05 12:03:04;;;;;;;;;;;15.40;99.90;;;;;;8392318;28;19909;-63
2021/10/05 12:07:08;;;;;;;;;;;15.50;99.90;;;;;;8391097;28;19908;-63
2021/10/05 12:11:10;;;;;;;;;;;15.50;99.90;;;;;;8391368;28;20405;-63
2021/10/05 12:15:20;;;;;;;;;;;15.40;99.90;;;;;;8390640;28;19977;-63
2021/10/05 12:19:27;;;;;;;;;;;15.50;99.90;;;;;;8373304;28;19952;-62
2021/10/05 12:23:28;;;;;;;;;;;15.20;99.90;;;;;;8358978;28;19921;-63
2021/10/05 12:27:28;;;;;;;;;;;15.10;99.90;;;;;;8357303;28;20394;-63
2021/10/05 12:31:29;;;;;;;;;;;14.90;99.90;;;;;;8359289;28;19916;-63
2021/10/05 12:35:29;;;;;;;;;;;14.80;99.90;;;;;;8357666;28;19909;-63
2021/10/05 12:39:29;;;;;;;;;;;14.90;99.90;;;;;;8359116;28;19999;-63
2021/10/05 12:43:33;;;;;;;;;;;14.90;99.90;;;;;;8359113;28;19947;-63
2021/10/05 12:47:33;;;;;;;;;;;14.80;99.90;;;;;;8363201;28;20264;-63
2021/10/05 12:51:34;;;;;;;;;;;14.70;99.90;;;;;;8397718;28;20003;-62
2021/10/05 12:55:34;;;;;;;;;;;14.70;99.90;;;;;;8398299;28;19959;-63
2021/10/05 12:59:35;;;;;;;;;;;14.70;99.90;;;;;;8398480;28;19927;-62
2021/10/05 13:03:36;;;;;;;;;;;14.60;99.90;;;;;;8398330;28;20378;-63
2021/10/05 13:07:37;;;;;;;;;;;14.60;99.90;;;;;;8396647;28;20012;-62
2021/10/05 13:11:38;;;;;;;;;;;14.60;99.90;;;;;;8398085;28;19913;-63
2021/10/05 13:15:38;;;;;;;;;;;14.70;99.90;;;;;;8397483;28;19913;-63
2021/10/05 13:19:39;;;;;;;;;;;14.80;99.90;;;;;;8396542;28;19915;-63
2021/10/05 13:23:39;;;;;;;;;;;14.80;99.90;;;;;;8397425;28;19929;-62
2021/10/05 13:27:40;;;;;;;;;;;14.60;99.90;;;;;;8396763;28;19912;-63
2021/10/05 13:31:40;;;;;;;;;;;14.60;99.90;;;;;;8397249;28;19934;-63
2021/10/05 13:35:41;;;;;;;;;;;14.30;99.90;;;;;;8397029;28;19908;-63
2021/10/05 13:39:42;;;;;;;;;;;14.20;99.90;;;;;;8395707;28;20377;-63
2021/10/05 13:43:42;;;;;;;;;;;14.20;99.90;;;;;;8396672;28;20367;-62
2021/10/05 13:47:43;;;;;;;;;;;14.10;99.90;;;;;;8396488;28;19915;-62
2021/10/05 13:51:43;;;;;;;;;;;14.10;99.90;;;;;;8397020;28;19912;-62
2021/10/05 13:55:44;;;;;;;;;;;14.10;99.90;;;;;;8395094;28;19969;-62
2021/10/05 13:59:44;;;;;;;;;;;14.10;99.90;;;;;;8382824;28;19920;-63
2021/10/05 14:03:45;;;;;;;;;;;14.10;99.90;;;;;;8362425;28;20012;-62
2021/10/05 14:07:45;;;;;;;;;;;14.00;99.90;;;;;;8380007;28;20286;-63
2021/10/05 14:11:46;;;;;;;;;;;14.00;99.90;;;;;;8396111;28;19920;-62
2021/10/05 14:15:46;;;;;;;;;;;13.90;99.90;;;;;;8385218;28;20301;-63
2021/10/05 14:19:47;;;;;;;;;;;13.80;99.90;;;;;;8362570;28;19916;-62
2021/10/05 14:23:48;;;;;;;;;;;13.80;99.90;;;;;;8362153;28;19970;-62
2021/10/05 14:27:49;;;;;;;;;;;13.60;99.90;;;;;;8367210;28;19919;-62
2021/10/05 14:31:50;;;;;;;;;;;13.50;99.90;;;;;;8361242;28;19924;-62
2021/10/05 14:35:50;;;;;;;;;;;13.50;99.90;;;;;;8364802;28;19921;-62
2021/10/05 14:39:50;;;;;;;;;;;13.50;99.90;;;;;;8360789;28;19921;-62
2021/10/05 14:43:51;;;;;;;;;;;13.50;99.90;;;;;;8361934;28;19958;-63
2021/10/05 14:47:52;;;;;;;;;;;13.70;99.90;;;;;;8361701;28;20383;-62
2021/10/05 14:51:52;;;;;;;;;;;13.90;99.90;;;;;;8361975;28;19964;-63
2021/10/05 14:55:53;;;;;;;;;;;14.10;99.90;;;;;;8361420;28;19912;-62
2021/10/05 14:59:55;;;;;;;;;;;14.10;99.90;;;;;;8361747;28;19913;-62
2021/10/05 15:03:59;;;;;;;;;;;14.20;99.90;;;;;;8361375;28;19964;-62
2021/10/05 15:07:59;;;;;;;;;;;14.40;99.90;;;;;;8360490;28;19918;-62
2021/10/05 15:12:00;;;;;;;;;;;14.50;99.90;;;;;;8360372;28;19917;-62
2021/10/05 15:16:02;;;;;;;;;;;14.40;99.90;;;;;;8362900;28;19917;-62
2021/10/05 15:20:04;;;;;;;;;;;14.30;99.90;;;;;;8386417;28;19944;-62
2021/10/05 15:24:04;;;;;;;;;;;14.50;99.90;;;;;;8392797;28;19978;-62
2021/10/05 15:28:05;;;;;;;;;;;14.30;99.90;;;;;;8379400;28;19938;-63
2021/10/05 15:32:06;;;;;;;;;;;14.40;99.90;;;;;;8378831;28;20601;-63
2021/10/05 15:36:06;;;;;;;;;;;14.30;99.90;;;;;;8373814;28;19912;-63
2021/10/05 15:40:08;;;;;;;;;;;14.30;99.90;;;;;;8388536;28;19920;-62
2021/10/05 15:44:08;;;;;;;;;;;14.30;99.90;;;;;;8369290;28;19916;-62
2021/10/05 15:48:10;;;;;;;;;;;14.10;99.90;;;;;;8373506;28;20454;-62
2021/10/05 15:52:24;;;;;;;;;;;14.10;99.90;;;;;;8369946;28;19920;-61
2021/10/05 15:56:24;;;;;;;;;;;13.90;99.90;;;;;;8384001;28;19962;-61
2021/10/05 16:00:25;;;;;;;;;;;13.90;99.90;;;;;;8392410;28;20383;-62
2021/10/05 16:04:28;;;;;;;;;;;13.90;99.90;;;;;;8381530;28;19917;-62
2021/10/05 16:08:32;;;;;;;;;;;14.00;99.90;;;;;;8363074;28;20408;-62
2021/10/05 16:12:32;;;;;;;;;;;13.90;99.90;;;;;;8365631;28;19928;-62
2021/10/05 16:16:34;;;;;;;;;;;13.80;99.90;;;;;;8373510;28;19939;-62
2021/10/05 16:20:34;;;;;;;;;;;13.60;99.90;;;;;;8371147;28;19912;-63
2021/10/05 16:24:35;;;;;;;;;;;13.60;99.90;;;;;;8373984;28;20321;-61
2021/10/05 16:28:36;;;;;;;;;;;13.50;99.90;;;;;;8374326;28;20375;-63
2021/10/05 16:32:37;;;;;;;;;;;13.30;99.90;;;;;;8373116;28;19921;-63
2021/10/05 16:36:39;;;;;;;;;;;13.10;99.90;;;;;;8374785;28;19913;-64
2021/10/05 16:40:39;;;;;;;;;;;13.10;99.90;;;;;;8375276;28;19913;-65
2021/10/05 16:44:40;;;;;;;;;;;13.00;99.90;;;;;;8373104;28;19924;-65
2021/10/05 16:48:40;;;;;;;;;;;13.00;99.90;;;;;;8377562;28;20061;-65
2021/10/05 16:52:41;;;;;;;;;;;12.70;99.90;;;;;;8381184;28;19917;-65
2021/10/05 16:56:42;;;;;;;;;;;12.60;99.90;;;;;;8355916;28;19909;-65
2021/10/05 17:00:43;;;;;;;;;;;12.40;99.90;;;;;;8360238;28;19956;-65
2021/10/05 17:04:43;;;;;;;;;;;12.20;99.90;;;;;;8357745;28;19970;-65
2021/10/05 17:08:44;;;;;;;;;;;12.10;99.90;;;;;;8373763;28;19919;-65
2021/10/05 17:12:46;;;;;;;;;;;12.20;99.90;;;;;;8362287;28;19966;-65
2021/10/05 17:16:48;;;;;;;;;;;12.30;99.90;;;;;;8390952;28;19919;-65
2021/10/05 17:20:48;;;;;;;;;;;12.00;99.90;;;;;;8386812;28;19962;-64
2021/10/05 17:24:49;;;;;;;;;;;12.10;99.90;;;;;;8372582;28;20459;-65
2021/10/05 17:28:52;;;;;;;;;;;12.00;99.90;;;;;;8359217;28;19909;-65
2021/10/05 17:32:53;;;;;;;;;;;11.80;99.90;;;;;;8361818;28;19916;-65
2021/10/05 17:36:54;;;;;;;;;;;11.80;99.90;;;;;;8373434;28;20379;-65
2021/10/05 17:40:55;;;;;;;;;;;11.70;99.90;;;;;;8368360;28;19912;-65
2021/10/05 17:44:55;;;;;;;;;;;11.80;99.90;;;;;;8377747;28;19938;-65
2021/10/05 17:48:56;;;;;;;;;;;11.70;99.90;;;;;;8368455;28;19913;-65
2021/10/05 17:52:56;;;;;;;;;;;11.60;99.90;;;;;;8361689;28;20545;-65
2021/10/05 17:56:57;;;;;;;;;;;11.70;99.90;;;;;;8375691;28;20390;-65
2021/10/05 18:00:57;;;;;;;;;;;11.60;99.90;;;;;;8381371;28;19924;-65
2021/10/05 18:04:59;;;;;;;;;;;11.50;99.90;;;;;;8377645;28;19913;-65
2021/10/05 18:09:00;;;;;;;;;;;11.60;99.90;;;;;;8386904;28;19917;-68
2021/10/05 18:13:00;;;;;;;;;;;11.80;99.90;;;;;;8388276;28;20947;-64
2021/10/05 18:17:01;;;;;;;;;;;11.70;99.90;;;;;;8367667;28;19912;-65
2021/10/05 18:21:03;;;;;;;;;;;11.80;99.90;;;;;;8370410;28;19920;-64
2021/10/05 18:25:04;;;;;;;;;;;11.70;99.90;;;;;;8378161;28;19942;-65
2021/10/05 18:29:05;;;;;;;;;;;11.70;99.90;;;;;;8372431;28;19960;-64
2021/10/05 18:33:05;;;;;;;;;;;11.80;99.90;;;;;;8359324;28;20015;-64
2021/10/05 18:37:07;;;;;;;;;;;11.80;99.90;;;;;;8385565;28;19920;-64
2021/10/05 18:41:08;;;;;;;;;;;11.80;99.90;;;;;;8371342;28;19920;-64
2021/10/05 18:45:09;;;;;;;;;;;11.90;99.90;;;;;;8378093;28;19932;-65
2021/10/05 18:49:10;;;;;;;;;;;12.10;99.90;;;;;;8389598;28;20298;-64
2021/10/05 18:53:10;;;;;;;;;;;12.00;99.90;;;;;;8388405;28;19924;-64
2021/10/05 18:57:11;;;;;;;;;;;12.10;99.90;;;;;;8372271;28;19928;-65
2021/10/05 19:01:11;;;;;;;;;;;12.10;99.90;;;;;;8359658;28;19920;-65
2021/10/05 19:05:12;;;;;;;;;;;12.10;99.90;;;;;;8357785;28;19912;-64
2021/10/05 19:09:12;;;;;;;;;;;11.90;99.90;;;;;;8355587;28;19920;-65
2021/10/05 19:13:16;;;;;;;;;;;11.80;99.90;;;;;;8355519;28;19916;-64
2021/10/05 19:17:16;;;;;;;;;;;11.80;99.90;;;;;;8387449;28;20693;-64
2021/10/05 19:21:17;;;;;;;;;;;12.00;99.90;;;;;;8359105;28;19921;-65
2021/10/05 19:25:17;;;;;;;;;;;12.10;99.90;;;;;;8373293;28;19917;-64
2021/10/05 19:29:18;;;;;;;;;;;12.20;99.90;;;;;;8384185;28;19913;-64
2021/10/05 19:33:19;;;;;;;;;;;12.20;99.90;;;;;;8388391;28;19928;-64
2021/10/05 19:37:19;;;;;;;;;;;12.20;99.90;;;;;;8372167;28;19935;-64
2021/10/05 19:41:20;;;;;;;;;;;12.30;99.90;;;;;;8362984;28;19967;-64
2021/10/05 19:45:20;;;;;;;;;;;12.40;99.90;;;;;;8375696;28;19927;-64
2021/10/05 19:49:21;;;;;;;;;;;12.40;99.90;;;;;;8371217;28;20337;-64
2021/10/05 19:53:21;;;;;;;;;;;12.40;99.90;;;;;;8362196;28;19924;-64
2021/10/05 19:57:22;;;;;;;;;;;12.40;99.90;;;;;;8363401;28;19964;-64
2021/10/05 20:01:22;;;;;;;;;;;12.40;99.90;;;;;;8373968;28;19962;-64
2021/10/05 20:05:25;;;;;;;;;;;12.30;99.90;;;;;;8374372;28;19924;-64
2021/10/05 20:09:27;;;;;;;;;;;12.30;99.90;;;;;;8374828;28;20557;-65
2021/10/05 20:13:28;;;;;;;;;;;12.20;99.90;;;;;;8370734;28;19925;-64
2021/10/05 20:17:28;;;;;;;;;;;12.30;99.90;;;;;;8367525;28;19917;-64
2021/10/05 20:21:29;;;;;;;;;;;12.20;99.90;;;;;;8372656;28;19921;-63
2021/10/05 20:25:29;;;;;;;;;;;12.20;99.90;;;;;;8380206;28;19952;-63
2021/10/05 20:29:30;;;;;;;;;;;12.20;99.90;;;;;;8373434;28;19947;-63
2021/10/05 20:33:31;;;;;;;;;;;12.20;99.90;;;;;;8374354;28;19923;-63
2021/10/05 20:37:31;;;;;;;;;;;12.20;99.90;;;;;;8373057;28;19919;-63
2021/10/05 20:41:32;;;;;;;;;;;12.20;99.90;;;;;;8374736;28;19913;-63
2021/10/05 20:45:32;;;;;;;;;;;12.20;99.90;;;;;;8374182;28;19909;-62
2021/10/05 20:49:33;;;;;;;;;;;12.20;99.90;;;;;;8378935;28;20322;-63
2021/10/05 20:53:33;;;;;;;;;;;12.20;99.90;;;;;;8390215;28;19995;-63
2021/10/05 20:57:34;;;;;;;;;;;12.20;99.90;;;;;;8389921;28;19935;-63
2021/10/05 21:01:36;;;;;;;;;;;12.20;99.90;;;;;;8391761;28;19956;-63
2021/10/05 21:05:38;;;;;;;;;;;12.20;99.90;;;;;;8390856;28;19940;-63
2021/10/05 21:09:39;;;;;;;;;;;12.20;99.90;;;;;;8391939;28;20294;-63
2021/10/05 21:13:39;;;;;;;;;;;12.20;99.90;;;;;;8396380;28;19916;-63
2021/10/05 21:17:40;;;;;;;;;;;12.20;99.90;;;;;;8397614;28;19999;-63
2021/10/05 21:21:40;;;;;;;;;;;12.20;99.90;;;;;;8398234;28;19979;-63
2021/10/05 21:25:41;;;;;;;;;;;12.20;99.90;;;;;;8397669;28;20318;-63
2021/10/05 21:29:41;;;;;;;;;;;12.20;99.90;;;;;;8397407;28;19908;-63
2021/10/05 21:33:42;;;;;;;;;;;12.20;99.90;;;;;;8395753;28;19978;-63
2021/10/05 21:37:42;;;;;;;;;;;12.10;99.90;;;;;;8396872;28;20421;-63
2021/10/05 21:41:43;;;;;;;;;;;12.10;99.90;;;;;;8397025;28;20477;-63
2021/10/05 21:45:43;;;;;;;;;;;12.10;99.90;;;;;;8396673;28;20332;-63
2021/10/05 21:49:44;;;;;;;;;;;12.10;99.90;;;;;;8396627;28;19908;-63
2021/10/05 21:53:44;;;;;;;;;;;12.10;99.90;;;;;;8396502;28;20430;-63
2021/10/05 21:57:45;;;;;;;;;;;12.10;99.90;;;;;;8396160;28;19908;-63
2021/10/05 22:01:45;;;;;;;;;;;12.00;99.90;;;;;;8396347;28;19962;-63
2021/10/05 22:05:46;;;;;;;;;;;12.00;99.90;;;;;;8395544;28;19910;-63
2021/10/05 22:09:46;;;;;;;;;;;11.90;99.90;;;;;;8396066;28;19909;-63
2021/10/05 22:13:47;;;;;;;;;;;11.90;99.90;;;;;;8395903;28;19912;-63
2021/10/05 22:17:47;;;;;;;;;;;11.80;99.90;;;;;;8395394;28;19978;-63
2021/10/05 22:21:48;;;;;;;;;;;11.80;99.90;;;;;;8395190;28;19958;-63
2021/10/05 22:25:48;;;;;;;;;;;11.70;99.90;;;;;;8395325;28;19931;-63
2021/10/05 22:29:49;;;;;;;;;;;11.70;99.90;;;;;;8395508;28;20521;-63
2021/10/05 22:33:49;;;;;;;;;;;11.60;99.90;;;;;;8395047;28;19913;-64
2021/10/05 22:37:51;;;;;;;;;;;11.50;99.90;;;;;;8395063;28;19919;-64
2021/10/05 22:41:52;;;;;;;;;;;11.20;99.90;;;;;;8393988;28;19909;-63
2021/10/05 22:45:53;;;;;;;;;;;11.40;99.90;;;;;;8394640;28;20479;-63
2021/10/05 22:49:54;;;;;;;;;;;11.40;99.90;;;;;;8389213;28;19917;-63
2021/10/05 22:53:54;;;;;;;;;;;11.30;99.90;;;;;;8361397;28;20367;-63
2021/10/05 22:57:54;;;;;;;;;;;11.40;99.90;;;;;;8360711;28;19916;-63
2021/10/05 23:01:55;;;;;;;;;;;11.30;99.90;;;;;;8360164;28;19958;-63
2021/10/05 23:05:55;;;;;;;;;;;11.30;99.90;;;;;;8361072;28;20326;-63
2021/10/05 23:09:56;;;;;;;;;;;11.10;99.90;;;;;;8361321;28;20401;-63
2021/10/05 23:13:56;;;;;;;;;;;11.00;99.90;;;;;;8360786;28;20397;-63
2021/10/05 23:17:57;;;;;;;;;;;11.00;99.90;;;;;;8360783;28;19909;-63
2021/10/05 23:21:57;;;;;;;;;;;11.10;99.90;;;;;;8361053;28;20058;-63
2021/10/05 23:25:58;;;;;;;;;;;10.90;99.90;;;;;;8360809;28;19919;-63